CYKA

Kamloops Airport

Kamloops, British Columbia, Canada
METAR CYKA 212200Z 27014KT 40SM BKN057 BKN080 19/10 A3012 RMK SC5AC2 SLP207 DENSITY ALT 1700FT
Observed Flight Rules
Jul-21 @ 22:00 UTC (52 minutes ago) Visual Flight Rules
Wind Visibility Clouds
270° at 14 knots 40 miles
  • Broken at 5,700' AGL
  • Broken at 8,000' AGL
Temperatures Readings
Current 19°C / 66°F
Dewpoint 10°C / 50°F
Humidity 56%
Altimeter 30.12" Hg
Pressure 1020.7 hPa
Elevation 346
METAR CYKA 212200Z 27014KT 40SM BKN057 BKN080 19/10 A3012 RMK SC5AC2 SLP207 DENSITY ALT 1700FT
Observed Flight Rules
Jul-21 @ 22:00 UTC
(52 minutes ago)
VFR
Wind Visibility
270° at 14 knots 40 miles
Clouds
  • Broken at 5,700' AGL
  • Broken at 8,000' AGL
Temperature Dewpoint
19°C / 66°F 10°C / 50°F
Humidity Altimeter Pressure
56% 30.12" Hg 1020.7 hPa